sensor_id;sensor_type;location;lat;lon;timestamp;P1;durP1;ratioP1;P2;durP2;ratioP2
76409;SDS011;65238;42.662;23.280;2024-03-02T00:00:10;36.28;;;18.38;;
76409;SDS011;65238;42.662;23.280;2024-03-02T00:02:44;40.25;;;19.65;;
76409;SDS011;65238;42.662;23.280;2024-03-02T00:05:14;40.80;;;20.35;;
76409;SDS011;65238;42.662;23.280;2024-03-02T00:07:59;41.83;;;19.92;;
76409;SDS011;65238;42.662;23.280;2024-03-02T00:10:25;41.63;;;19.10;;
76409;SDS011;65238;42.662;23.280;2024-03-02T00:12:54;42.42;;;21.33;;
76409;SDS011;65238;42.662;23.280;2024-03-02T00:17:55;38.72;;;19.40;;
76409;SDS011;65238;42.662;23.280;2024-03-02T00:20:24;40.50;;;20.08;;
76409;SDS011;65238;42.662;23.280;2024-03-02T00:22:55;39.50;;;20.33;;
76409;SDS011;65238;42.662;23.280;2024-03-02T00:25:26;41.63;;;19.98;;
76409;SDS011;65238;42.662;23.280;2024-03-02T00:27:52;43.10;;;21.13;;
76409;SDS011;65238;42.662;23.280;2024-03-02T00:33:21;41.33;;;20.30;;
76409;SDS011;65238;42.662;23.280;2024-03-02T00:35:49;41.20;;;19.77;;
76409;SDS011;65238;42.662;23.280;2024-03-02T00:38:16;42.55;;;20.75;;
76409;SDS011;65238;42.662;23.280;2024-03-02T00:40:42;40.38;;;20.15;;
76409;SDS011;65238;42.662;23.280;2024-03-02T00:45:53;35.35;;;19.20;;
76409;SDS011;65238;42.662;23.280;2024-03-02T00:48:18;43.13;;;20.15;;
76409;SDS011;65238;42.662;23.280;2024-03-02T00:50:43;41.78;;;20.58;;
76409;SDS011;65238;42.662;23.280;2024-03-02T00:53:12;39.55;;;18.88;;
76409;SDS011;65238;42.662;23.280;2024-03-02T00:55:38;38.08;;;19.33;;
76409;SDS011;65238;42.662;23.280;2024-03-02T00:58:04;35.83;;;19.23;;
76409;SDS011;65238;42.662;23.280;2024-03-02T01:00:32;38.90;;;18.83;;
76409;SDS011;65238;42.662;23.280;2024-03-02T01:02:58;40.45;;;21.00;;
76409;SDS011;65238;42.662;23.280;2024-03-02T01:05:23;41.30;;;20.15;;
76409;SDS011;65238;42.662;23.280;2024-03-02T01:07:49;41.08;;;20.15;;
76409;SDS011;65238;42.662;23.280;2024-03-02T01:10:14;41.35;;;21.15;;
76409;SDS011;65238;42.662;23.280;2024-03-02T01:12:40;41.75;;;20.13;;
76409;SDS011;65238;42.662;23.280;2024-03-02T01:15:06;43.38;;;21.55;;
76409;SDS011;65238;42.662;23.280;2024-03-02T01:17:33;42.25;;;22.02;;
76409;SDS011;65238;42.662;23.280;2024-03-02T01:19:58;42.10;;;20.15;;
76409;SDS011;65238;42.662;23.280;2024-03-02T01:22:24;47.67;;;22.95;;
76409;SDS011;65238;42.662;23.280;2024-03-02T01:24:50;42.03;;;21.35;;
76409;SDS011;65238;42.662;23.280;2024-03-02T01:27:16;43.65;;;21.52;;
76409;SDS011;65238;42.662;23.280;2024-03-02T01:29:41;44.72;;;21.27;;
76409;SDS011;65238;42.662;23.280;2024-03-02T01:32:07;40.95;;;20.52;;
76409;SDS011;65238;42.662;23.280;2024-03-02T01:34:32;47.50;;;21.38;;
76409;SDS011;65238;42.662;23.280;2024-03-02T01:36:58;38.90;;;20.60;;
76409;SDS011;65238;42.662;23.280;2024-03-02T01:39:23;39.22;;;20.15;;
76409;SDS011;65238;42.662;23.280;2024-03-02T01:41:48;43.70;;;20.80;;
76409;SDS011;65238;42.662;23.280;2024-03-02T01:44:14;41.92;;;19.65;;
76409;SDS011;65238;42.662;23.280;2024-03-02T01:46:39;36.65;;;18.23;;
76409;SDS011;65238;42.662;23.280;2024-03-02T01:49:05;35.08;;;18.60;;
76409;SDS011;65238;42.662;23.280;2024-03-02T01:51:31;36.78;;;17.77;;
76409;SDS011;65238;42.662;23.280;2024-03-02T01:53:56;35.78;;;16.67;;
76409;SDS011;65238;42.662;23.280;2024-03-02T01:56:22;34.88;;;15.73;;
76409;SDS011;65238;42.662;23.280;2024-03-02T01:58:47;35.95;;;17.77;;
76409;SDS011;65238;42.662;23.280;2024-03-02T02:01:13;36.08;;;17.40;;
76409;SDS011;65238;42.662;23.280;2024-03-02T02:03:40;37.78;;;17.60;;
76409;SDS011;65238;42.662;23.280;2024-03-02T02:06:06;41.13;;;20.10;;
76409;SDS011;65238;42.662;23.280;2024-03-02T02:08:33;45.42;;;20.35;;
76409;SDS011;65238;42.662;23.280;2024-03-02T02:10:58;41.92;;;19.42;;
76409;SDS011;65238;42.662;23.280;2024-03-02T02:13:23;44.67;;;20.08;;
76409;SDS011;65238;42.662;23.280;2024-03-02T02:15:49;42.15;;;20.08;;
76409;SDS011;65238;42.662;23.280;2024-03-02T02:18:15;47.80;;;22.27;;
76409;SDS011;65238;42.662;23.280;2024-03-02T02:20:41;42.35;;;20.30;;
76409;SDS011;65238;42.662;23.280;2024-03-02T02:23:06;44.65;;;21.20;;
76409;SDS011;65238;42.662;23.280;2024-03-02T02:25:34;47.70;;;21.42;;
76409;SDS011;65238;42.662;23.280;2024-03-02T02:28:00;38.97;;;19.63;;
76409;SDS011;65238;42.662;23.280;2024-03-02T02:30:27;38.55;;;19.17;;
76409;SDS011;65238;42.662;23.280;2024-03-02T02:32:55;39.67;;;19.13;;
76409;SDS011;65238;42.662;23.280;2024-03-02T02:35:20;33.88;;;17.70;;
76409;SDS011;65238;42.662;23.280;2024-03-02T02:37:47;37.08;;;18.17;;
76409;SDS011;65238;42.662;23.280;2024-03-02T02:40:14;35.20;;;17.58;;
76409;SDS011;65238;42.662;23.280;2024-03-02T02:42:39;37.85;;;17.98;;
76409;SDS011;65238;42.662;23.280;2024-03-02T02:45:05;39.50;;;19.17;;
76409;SDS011;65238;42.662;23.280;2024-03-02T02:47:31;38.13;;;18.10;;
76409;SDS011;65238;42.662;23.280;2024-03-02T02:50:00;38.03;;;17.98;;
76409;SDS011;65238;42.662;23.280;2024-03-02T02:52:31;38.38;;;18.88;;
76409;SDS011;65238;42.662;23.280;2024-03-02T02:54:58;35.63;;;18.77;;
76409;SDS011;65238;42.662;23.280;2024-03-02T02:57:24;37.92;;;19.13;;
76409;SDS011;65238;42.662;23.280;2024-03-02T02:59:49;41.53;;;20.05;;
76409;SDS011;65238;42.662;23.280;2024-03-02T03:02:17;39.85;;;19.77;;
76409;SDS011;65238;42.662;23.280;2024-03-02T03:04:43;45.05;;;21.30;;
76409;SDS011;65238;42.662;23.280;2024-03-02T03:07:08;47.22;;;22.65;;
76409;SDS011;65238;42.662;23.280;2024-03-02T03:09:37;50.38;;;23.73;;
76409;SDS011;65238;42.662;23.280;2024-03-02T03:12:03;55.47;;;25.52;;
76409;SDS011;65238;42.662;23.280;2024-03-02T03:14:32;48.13;;;24.23;;
76409;SDS011;65238;42.662;23.280;2024-03-02T03:16:58;51.25;;;25.08;;
76409;SDS011;65238;42.662;23.280;2024-03-02T03:19:23;52.92;;;24.65;;
76409;SDS011;65238;42.662;23.280;2024-03-02T03:21:48;60.65;;;27.05;;
76409;SDS011;65238;42.662;23.280;2024-03-02T03:24:14;60.53;;;27.98;;
76409;SDS011;65238;42.662;23.280;2024-03-02T03:26:39;56.28;;;26.75;;
76409;SDS011;65238;42.662;23.280;2024-03-02T03:29:04;56.72;;;27.05;;
76409;SDS011;65238;42.662;23.280;2024-03-02T03:31:30;54.15;;;25.85;;
76409;SDS011;65238;42.662;23.280;2024-03-02T03:33:55;58.72;;;27.30;;
76409;SDS011;65238;42.662;23.280;2024-03-02T03:36:20;58.50;;;27.42;;
76409;SDS011;65238;42.662;23.280;2024-03-02T03:38:46;57.10;;;27.08;;
76409;SDS011;65238;42.662;23.280;2024-03-02T03:41:11;52.45;;;24.80;;
76409;SDS011;65238;42.662;23.280;2024-03-02T03:43:37;61.67;;;28.48;;
76409;SDS011;65238;42.662;23.280;2024-03-02T03:46:02;59.67;;;27.20;;
76409;SDS011;65238;42.662;23.280;2024-03-02T03:48:28;56.08;;;26.90;;
76409;SDS011;65238;42.662;23.280;2024-03-02T03:50:55;64.70;;;27.90;;
76409;SDS011;65238;42.662;23.280;2024-03-02T03:53:21;62.28;;;27.85;;
76409;SDS011;65238;42.662;23.280;2024-03-02T03:55:47;60.28;;;27.60;;
76409;SDS011;65238;42.662;23.280;2024-03-02T03:58:14;61.08;;;27.75;;
76409;SDS011;65238;42.662;23.280;2024-03-02T04:00:41;55.90;;;27.63;;
76409;SDS011;65238;42.662;23.280;2024-03-02T04:03:07;66.95;;;29.20;;
76409;SDS011;65238;42.662;23.280;2024-03-02T04:05:32;61.47;;;28.35;;
76409;SDS011;65238;42.662;23.280;2024-03-02T04:07:58;60.65;;;27.75;;
76409;SDS011;65238;42.662;23.280;2024-03-02T04:10:23;60.28;;;28.00;;
76409;SDS011;65238;42.662;23.280;2024-03-02T04:12:49;61.08;;;28.48;;
76409;SDS011;65238;42.662;23.280;2024-03-02T04:15:15;58.92;;;28.75;;
76409;SDS011;65238;42.662;23.280;2024-03-02T04:17:41;65.13;;;28.92;;
76409;SDS011;65238;42.662;23.280;2024-03-02T04:20:06;66.18;;;28.70;;
76409;SDS011;65238;42.662;23.280;2024-03-02T04:22:32;66.78;;;30.25;;
76409;SDS011;65238;42.662;23.280;2024-03-02T04:24:59;64.63;;;28.42;;
76409;SDS011;65238;42.662;23.280;2024-03-02T04:27:25;66.45;;;30.20;;
76409;SDS011;65238;42.662;23.280;2024-03-02T04:29:51;60.13;;;27.95;;
76409;SDS011;65238;42.662;23.280;2024-03-02T04:32:16;67.57;;;29.42;;
76409;SDS011;65238;42.662;23.280;2024-03-02T04:34:42;66.28;;;31.35;;
76409;SDS011;65238;42.662;23.280;2024-03-02T04:37:08;66.03;;;29.85;;
76409;SDS011;65238;42.662;23.280;2024-03-02T04:39:35;66.80;;;31.35;;
76409;SDS011;65238;42.662;23.280;2024-03-02T04:42:01;64.18;;;29.80;;
76409;SDS011;65238;42.662;23.280;2024-03-02T04:44:27;69.88;;;31.02;;
76409;SDS011;65238;42.662;23.280;2024-03-02T04:46:53;68.93;;;29.77;;
76409;SDS011;65238;42.662;23.280;2024-03-02T04:49:21;66.38;;;31.92;;
76409;SDS011;65238;42.662;23.280;2024-03-02T04:51:46;62.83;;;28.65;;
76409;SDS011;65238;42.662;23.280;2024-03-02T04:54:11;60.00;;;29.77;;
76409;SDS011;65238;42.662;23.280;2024-03-02T04:56:39;66.20;;;30.95;;
76409;SDS011;65238;42.662;23.280;2024-03-02T04:59:16;68.38;;;28.60;;
76409;SDS011;65238;42.662;23.280;2024-03-02T05:01:43;71.75;;;31.55;;
76409;SDS011;65238;42.662;23.280;2024-03-02T05:04:08;68.85;;;29.67;;
76409;SDS011;65238;42.662;23.280;2024-03-02T05:06:36;65.00;;;29.63;;
76409;SDS011;65238;42.662;23.280;2024-03-02T05:09:05;68.55;;;30.98;;
76409;SDS011;65238;42.662;23.280;2024-03-02T05:11:31;61.47;;;29.10;;
76409;SDS011;65238;42.662;23.280;2024-03-02T05:14:02;67.43;;;30.97;;
76409;SDS011;65238;42.662;23.280;2024-03-02T05:16:28;68.38;;;29.80;;
76409;SDS011;65238;42.662;23.280;2024-03-02T05:18:54;64.03;;;30.30;;
76409;SDS011;65238;42.662;23.280;2024-03-02T05:21:19;64.10;;;29.40;;
76409;SDS011;65238;42.662;23.280;2024-03-02T05:23:45;69.45;;;31.98;;
76409;SDS011;65238;42.662;23.280;2024-03-02T05:26:10;73.22;;;33.38;;
76409;SDS011;65238;42.662;23.280;2024-03-02T05:28:39;64.22;;;30.23;;
76409;SDS011;65238;42.662;23.280;2024-03-02T05:31:04;62.13;;;31.23;;
76409;SDS011;65238;42.662;23.280;2024-03-02T05:33:30;73.82;;;32.92;;
76409;SDS011;65238;42.662;23.280;2024-03-02T05:35:56;67.28;;;30.67;;
76409;SDS011;65238;42.662;23.280;2024-03-02T05:38:22;77.97;;;33.13;;
76409;SDS011;65238;42.662;23.280;2024-03-02T05:40:47;65.93;;;30.80;;
76409;SDS011;65238;42.662;23.280;2024-03-02T05:43:13;72.07;;;31.33;;
76409;SDS011;65238;42.662;23.280;2024-03-02T05:45:39;70.75;;;31.17;;
76409;SDS011;65238;42.662;23.280;2024-03-02T05:48:05;65.22;;;30.60;;
76409;SDS011;65238;42.662;23.280;2024-03-02T05:50:32;63.92;;;29.98;;
76409;SDS011;65238;42.662;23.280;2024-03-02T05:52:58;68.82;;;30.48;;
76409;SDS011;65238;42.662;23.280;2024-03-02T05:55:24;78.13;;;32.75;;
76409;SDS011;65238;42.662;23.280;2024-03-02T05:57:49;71.63;;;32.63;;
76409;SDS011;65238;42.662;23.280;2024-03-02T06:00:35;73.78;;;31.77;;
76409;SDS011;65238;42.662;23.280;2024-03-02T06:03:00;68.47;;;31.27;;
76409;SDS011;65238;42.662;23.280;2024-03-02T06:05:25;74.60;;;31.23;;
76409;SDS011;65238;42.662;23.280;2024-03-02T06:07:51;70.40;;;31.83;;
76409;SDS011;65238;42.662;23.280;2024-03-02T06:10:16;71.68;;;31.33;;
76409;SDS011;65238;42.662;23.280;2024-03-02T06:12:42;64.88;;;30.85;;
76409;SDS011;65238;42.662;23.280;2024-03-02T06:15:08;70.63;;;32.08;;
76409;SDS011;65238;42.662;23.280;2024-03-02T06:17:34;64.72;;;31.42;;
76409;SDS011;65238;42.662;23.280;2024-03-02T06:20:00;72.95;;;31.60;;
76409;SDS011;65238;42.662;23.280;2024-03-02T06:22:25;67.72;;;32.38;;
76409;SDS011;65238;42.662;23.280;2024-03-02T06:24:51;75.25;;;31.10;;
76409;SDS011;65238;42.662;23.280;2024-03-02T06:27:16;76.22;;;33.83;;
76409;SDS011;65238;42.662;23.280;2024-03-02T06:29:42;71.28;;;31.55;;
76409;SDS011;65238;42.662;23.280;2024-03-02T06:32:07;75.20;;;32.58;;
76409;SDS011;65238;42.662;23.280;2024-03-02T06:34:33;73.47;;;33.45;;
76409;SDS011;65238;42.662;23.280;2024-03-02T06:36:58;75.78;;;33.55;;
76409;SDS011;65238;42.662;23.280;2024-03-02T06:39:24;78.45;;;33.25;;
76409;SDS011;65238;42.662;23.280;2024-03-02T06:41:50;70.20;;;32.17;;
76409;SDS011;65238;42.662;23.280;2024-03-02T06:44:16;70.72;;;33.45;;
76409;SDS011;65238;42.662;23.280;2024-03-02T06:46:42;70.22;;;32.22;;
76409;SDS011;65238;42.662;23.280;2024-03-02T06:49:07;64.35;;;29.80;;
76409;SDS011;65238;42.662;23.280;2024-03-02T06:51:33;54.22;;;25.55;;
76409;SDS011;65238;42.662;23.280;2024-03-02T06:53:59;51.45;;;24.42;;
76409;SDS011;65238;42.662;23.280;2024-03-02T06:56:25;54.83;;;26.52;;
76409;SDS011;65238;42.662;23.280;2024-03-02T06:58:50;65.40;;;25.83;;
76409;SDS011;65238;42.662;23.280;2024-03-02T07:01:15;60.33;;;28.08;;
76409;SDS011;65238;42.662;23.280;2024-03-02T07:03:41;56.35;;;26.05;;
76409;SDS011;65238;42.662;23.280;2024-03-02T07:06:06;54.53;;;25.50;;
76409;SDS011;65238;42.662;23.280;2024-03-02T07:08:32;50.17;;;24.23;;
76409;SDS011;65238;42.662;23.280;2024-03-02T07:10:57;48.60;;;22.38;;
76409;SDS011;65238;42.662;23.280;2024-03-02T07:13:22;49.05;;;22.40;;
76409;SDS011;65238;42.662;23.280;2024-03-02T07:15:48;50.05;;;22.13;;
76409;SDS011;65238;42.662;23.280;2024-03-02T07:18:31;51.00;;;23.20;;
76409;SDS011;65238;42.662;23.280;2024-03-02T07:20:58;45.22;;;21.40;;
76409;SDS011;65238;42.662;23.280;2024-03-02T07:23:25;44.03;;;21.80;;
76409;SDS011;65238;42.662;23.280;2024-03-02T07:25:52;43.50;;;21.00;;
76409;SDS011;65238;42.662;23.280;2024-03-02T07:28:27;43.00;;;20.75;;
76409;SDS011;65238;42.662;23.280;2024-03-02T07:33:29;42.95;;;21.00;;
76409;SDS011;65238;42.662;23.280;2024-03-02T07:35:55;40.17;;;20.00;;
76409;SDS011;65238;42.662;23.280;2024-03-02T07:38:21;43.85;;;20.40;;
76409;SDS011;65238;42.662;23.280;2024-03-02T07:40:47;41.25;;;20.17;;
76409;SDS011;65238;42.662;23.280;2024-03-02T07:43:15;41.03;;;19.02;;
76409;SDS011;65238;42.662;23.280;2024-03-02T07:45:41;47.20;;;19.73;;
76409;SDS011;65238;42.662;23.280;2024-03-02T07:48:07;49.60;;;22.25;;
76409;SDS011;65238;42.662;23.280;2024-03-02T07:50:32;48.72;;;22.15;;
76409;SDS011;65238;42.662;23.280;2024-03-02T07:53:00;43.58;;;20.77;;
76409;SDS011;65238;42.662;23.280;2024-03-02T07:55:28;43.08;;;21.13;;
76409;SDS011;65238;42.662;23.280;2024-03-02T07:57:54;43.50;;;19.77;;
76409;SDS011;65238;42.662;23.280;2024-03-02T08:00:20;45.67;;;21.50;;
76409;SDS011;65238;42.662;23.280;2024-03-02T08:02:46;51.00;;;22.83;;
76409;SDS011;65238;42.662;23.280;2024-03-02T08:05:11;46.15;;;20.88;;
76409;SDS011;65238;42.662;23.280;2024-03-02T08:07:37;51.78;;;23.63;;
76409;SDS011;65238;42.662;23.280;2024-03-02T08:10:02;52.78;;;22.63;;
76409;SDS011;65238;42.662;23.280;2024-03-02T08:12:28;50.67;;;24.73;;
76409;SDS011;65238;42.662;23.280;2024-03-02T08:14:54;56.00;;;25.45;;
76409;SDS011;65238;42.662;23.280;2024-03-02T08:17:19;50.65;;;23.13;;
76409;SDS011;65238;42.662;23.280;2024-03-02T08:19:44;54.90;;;24.60;;
76409;SDS011;65238;42.662;23.280;2024-03-02T08:22:10;56.17;;;25.15;;
76409;SDS011;65238;42.662;23.280;2024-03-02T08:24:35;60.85;;;25.45;;
76409;SDS011;65238;42.662;23.280;2024-03-02T08:27:01;56.63;;;26.75;;
76409;SDS011;65238;42.662;23.280;2024-03-02T08:29:27;62.00;;;26.67;;
76409;SDS011;65238;42.662;23.280;2024-03-02T08:31:53;59.10;;;27.00;;
76409;SDS011;65238;42.662;23.280;2024-03-02T08:34:18;61.70;;;26.15;;
76409;SDS011;65238;42.662;23.280;2024-03-02T08:36:44;56.22;;;24.73;;
76409;SDS011;65238;42.662;23.280;2024-03-02T08:39:09;62.05;;;26.40;;
76409;SDS011;65238;42.662;23.280;2024-03-02T08:41:44;59.75;;;27.50;;
76409;SDS011;65238;42.662;23.280;2024-03-02T08:44:10;59.50;;;25.60;;
76409;SDS011;65238;42.662;23.280;2024-03-02T08:46:35;54.67;;;26.33;;
76409;SDS011;65238;42.662;23.280;2024-03-02T08:49:01;56.53;;;24.63;;
76409;SDS011;65238;42.662;23.280;2024-03-02T08:51:27;59.75;;;25.83;;
76409;SDS011;65238;42.662;23.280;2024-03-02T08:53:52;54.85;;;25.25;;
76409;SDS011;65238;42.662;23.280;2024-03-02T08:56:18;46.38;;;21.30;;
76409;SDS011;65238;42.662;23.280;2024-03-02T08:58:45;46.92;;;20.98;;
76409;SDS011;65238;42.662;23.280;2024-03-02T09:01:11;49.72;;;21.10;;
76409;SDS011;65238;42.662;23.280;2024-03-02T09:03:36;48.25;;;21.45;;
76409;SDS011;65238;42.662;23.280;2024-03-02T09:06:02;46.28;;;20.35;;
76409;SDS011;65238;42.662;23.280;2024-03-02T09:08:28;45.03;;;21.30;;
76409;SDS011;65238;42.662;23.280;2024-03-02T09:10:53;40.92;;;21.80;;
76409;SDS011;65238;42.662;23.280;2024-03-02T09:13:19;43.75;;;20.55;;
76409;SDS011;65238;42.662;23.280;2024-03-02T09:15:45;48.88;;;21.92;;
76409;SDS011;65238;42.662;23.280;2024-03-02T09:18:10;47.35;;;21.02;;
76409;SDS011;65238;42.662;23.280;2024-03-02T09:20:35;57.25;;;21.48;;
76409;SDS011;65238;42.662;23.280;2024-03-02T09:23:01;43.63;;;19.83;;
76409;SDS011;65238;42.662;23.280;2024-03-02T09:25:26;45.38;;;21.75;;
76409;SDS011;65238;42.662;23.280;2024-03-02T09:27:52;46.33;;;22.02;;
76409;SDS011;65238;42.662;23.280;2024-03-02T09:30:17;39.75;;;19.63;;
76409;SDS011;65238;42.662;23.280;2024-03-02T09:32:43;45.85;;;21.45;;
76409;SDS011;65238;42.662;23.280;2024-03-02T09:35:08;39.40;;;19.58;;
76409;SDS011;65238;42.662;23.280;2024-03-02T09:37:37;45.75;;;21.05;;
76409;SDS011;65238;42.662;23.280;2024-03-02T09:40:05;41.85;;;20.58;;
76409;SDS011;65238;42.662;23.280;2024-03-02T09:42:31;40.17;;;18.52;;
76409;SDS011;65238;42.662;23.280;2024-03-02T09:44:57;43.63;;;20.48;;
76409;SDS011;65238;42.662;23.280;2024-03-02T09:47:23;42.58;;;21.48;;
76409;SDS011;65238;42.662;23.280;2024-03-02T09:49:49;39.35;;;18.15;;
76409;SDS011;65238;42.662;23.280;2024-03-02T09:52:14;40.13;;;18.77;;
76409;SDS011;65238;42.662;23.280;2024-03-02T09:54:41;33.60;;;17.70;;
76409;SDS011;65238;42.662;23.280;2024-03-02T09:57:06;39.00;;;19.35;;
76409;SDS011;65238;42.662;23.280;2024-03-02T09:59:32;40.58;;;18.38;;
76409;SDS011;65238;42.662;23.280;2024-03-02T10:01:58;40.67;;;19.83;;
76409;SDS011;65238;42.662;23.280;2024-03-02T10:04:27;39.20;;;18.58;;
76409;SDS011;65238;42.662;23.280;2024-03-02T10:07:30;40.42;;;19.80;;
76409;SDS011;65238;42.662;23.280;2024-03-02T10:09:49;41.60;;;19.88;;
76409;SDS011;65238;42.662;23.280;2024-03-02T10:12:16;40.47;;;20.58;;
76409;SDS011;65238;42.662;23.280;2024-03-02T10:14:42;42.20;;;21.80;;
76409;SDS011;65238;42.662;23.280;2024-03-02T10:17:11;42.45;;;20.83;;
76409;SDS011;65238;42.662;23.280;2024-03-02T10:19:38;46.35;;;21.52;;
76409;SDS011;65238;42.662;23.280;2024-03-02T10:22:04;48.53;;;22.33;;
76409;SDS011;65238;42.662;23.280;2024-03-02T10:24:35;48.03;;;21.85;;
76409;SDS011;65238;42.662;23.280;2024-03-02T10:27:46;48.35;;;21.75;;
76409;SDS011;65238;42.662;23.280;2024-03-02T10:29:52;46.17;;;22.77;;
76409;SDS011;65238;42.662;23.280;2024-03-02T10:32:18;53.85;;;24.00;;
76409;SDS011;65238;42.662;23.280;2024-03-02T10:34:47;59.22;;;26.38;;
76409;SDS011;65238;42.662;23.280;2024-03-02T10:37:13;57.13;;;27.75;;
76409;SDS011;65238;42.662;23.280;2024-03-02T10:39:39;56.00;;;26.75;;
76409;SDS011;65238;42.662;23.280;2024-03-02T10:42:06;58.85;;;27.80;;
76409;SDS011;65238;42.662;23.280;2024-03-02T10:44:32;60.33;;;27.63;;
76409;SDS011;65238;42.662;23.280;2024-03-02T10:47:01;56.67;;;26.88;;
76409;SDS011;65238;42.662;23.280;2024-03-02T10:49:31;56.35;;;25.88;;
76409;SDS011;65238;42.662;23.280;2024-03-02T10:51:58;56.45;;;26.30;;
76409;SDS011;65238;42.662;23.280;2024-03-02T10:54:24;60.20;;;27.88;;
76409;SDS011;65238;42.662;23.280;2024-03-02T10:56:51;65.32;;;28.83;;
76409;SDS011;65238;42.662;23.280;2024-03-02T11:01:50;60.28;;;28.38;;
76409;SDS011;65238;42.662;23.280;2024-03-02T11:04:16;63.70;;;27.48;;
76409;SDS011;65238;42.662;23.280;2024-03-02T11:06:49;61.95;;;27.45;;
76409;SDS011;65238;42.662;23.280;2024-03-02T11:09:16;54.75;;;26.20;;
76409;SDS011;65238;42.662;23.280;2024-03-02T11:11:44;53.70;;;26.77;;
76409;SDS011;65238;42.662;23.280;2024-03-02T11:14:12;58.20;;;26.92;;
76409;SDS011;65238;42.662;23.280;2024-03-02T11:16:39;54.63;;;25.80;;
76409;SDS011;65238;42.662;23.280;2024-03-02T11:19:07;50.90;;;24.95;;
76409;SDS011;65238;42.662;23.280;2024-03-02T11:21:36;54.97;;;26.20;;
76409;SDS011;65238;42.662;23.280;2024-03-02T11:26:52;55.80;;;26.35;;
76409;SDS011;65238;42.662;23.280;2024-03-02T11:32:22;55.13;;;25.45;;
76409;SDS011;65238;42.662;23.280;2024-03-02T11:34:51;53.40;;;24.52;;
76409;SDS011;65238;42.662;23.280;2024-03-02T11:37:20;53.08;;;24.67;;
76409;SDS011;65238;42.662;23.280;2024-03-02T11:39:46;52.67;;;24.83;;
76409;SDS011;65238;42.662;23.280;2024-03-02T11:42:13;47.22;;;24.20;;
76409;SDS011;65238;42.662;23.280;2024-03-02T11:44:40;54.78;;;25.08;;
76409;SDS011;65238;42.662;23.280;2024-03-02T11:47:08;50.03;;;24.08;;
76409;SDS011;65238;42.662;23.280;2024-03-02T11:49:39;49.92;;;24.08;;
76409;SDS011;65238;42.662;23.280;2024-03-02T11:52:17;54.92;;;26.25;;
76409;SDS011;65238;42.662;23.280;2024-03-02T11:54:46;52.55;;;23.92;;
76409;SDS011;65238;42.662;23.280;2024-03-02T11:57:16;52.72;;;24.08;;
76409;SDS011;65238;42.662;23.280;2024-03-02T11:59:45;49.75;;;25.13;;
76409;SDS011;65238;42.662;23.280;2024-03-02T12:02:14;53.38;;;23.25;;
76409;SDS011;65238;42.662;23.280;2024-03-02T12:04:42;45.30;;;24.02;;
76409;SDS011;65238;42.662;23.280;2024-03-02T12:07:08;47.13;;;22.42;;
76409;SDS011;65238;42.662;23.280;2024-03-02T12:09:34;49.03;;;23.80;;
76409;SDS011;65238;42.662;23.280;2024-03-02T12:12:06;46.10;;;23.42;;
76409;SDS011;65238;42.662;23.280;2024-03-02T12:14:36;48.83;;;24.40;;
76409;SDS011;65238;42.662;23.280;2024-03-02T12:17:02;43.75;;;22.95;;
76409;SDS011;65238;42.662;23.280;2024-03-02T12:19:28;49.72;;;24.48;;
76409;SDS011;65238;42.662;23.280;2024-03-02T12:21:55;48.30;;;22.92;;
76409;SDS011;65238;42.662;23.280;2024-03-02T12:24:21;53.03;;;23.73;;
76409;SDS011;65238;42.662;23.280;2024-03-02T12:26:47;50.88;;;24.13;;
76409;SDS011;65238;42.662;23.280;2024-03-02T12:29:16;50.90;;;24.67;;
76409;SDS011;65238;42.662;23.280;2024-03-02T12:31:42;44.67;;;23.30;;
76409;SDS011;65238;42.662;23.280;2024-03-02T12:34:11;45.72;;;22.67;;
76409;SDS011;65238;42.662;23.280;2024-03-02T12:36:38;47.67;;;23.40;;
76409;SDS011;65238;42.662;23.280;2024-03-02T12:39:04;45.63;;;22.65;;
76409;SDS011;65238;42.662;23.280;2024-03-02T12:41:29;47.50;;;22.90;;
76409;SDS011;65238;42.662;23.280;2024-03-02T12:43:55;49.53;;;24.08;;
76409;SDS011;65238;42.662;23.280;2024-03-02T12:46:20;47.97;;;24.90;;
76409;SDS011;65238;42.662;23.280;2024-03-02T12:48:46;47.22;;;24.05;;
76409;SDS011;65238;42.662;23.280;2024-03-02T12:51:11;50.83;;;25.08;;
76409;SDS011;65238;42.662;23.280;2024-03-02T12:53:37;44.00;;;22.92;;
76409;SDS011;65238;42.662;23.280;2024-03-02T12:56:02;48.25;;;22.58;;
76409;SDS011;65238;42.662;23.280;2024-03-02T12:58:29;52.15;;;23.70;;
76409;SDS011;65238;42.662;23.280;2024-03-02T13:01:08;53.80;;;25.98;;
76409;SDS011;65238;42.662;23.280;2024-03-02T13:03:41;49.92;;;24.83;;
76409;SDS011;65238;42.662;23.280;2024-03-02T13:06:09;55.25;;;26.67;;
76409;SDS011;65238;42.662;23.280;2024-03-02T13:08:36;45.20;;;22.10;;
76409;SDS011;65238;42.662;23.280;2024-03-02T13:11:02;53.17;;;25.92;;
76409;SDS011;65238;42.662;23.280;2024-03-02T13:13:32;52.53;;;24.65;;
76409;SDS011;65238;42.662;23.280;2024-03-02T13:16:02;53.40;;;24.60;;
76409;SDS011;65238;42.662;23.280;2024-03-02T13:18:31;46.67;;;24.48;;
76409;SDS011;65238;42.662;23.280;2024-03-02T13:20:56;52.35;;;24.25;;
76409;SDS011;65238;42.662;23.280;2024-03-02T13:23:22;43.67;;;23.48;;
76409;SDS011;65238;42.662;23.280;2024-03-02T13:25:47;47.28;;;23.95;;
76409;SDS011;65238;42.662;23.280;2024-03-02T13:28:13;48.17;;;24.30;;
76409;SDS011;65238;42.662;23.280;2024-03-02T13:30:39;53.13;;;25.05;;
76409;SDS011;65238;42.662;23.280;2024-03-02T13:33:04;49.42;;;25.58;;
76409;SDS011;65238;42.662;23.280;2024-03-02T13:35:30;50.45;;;25.60;;
76409;SDS011;65238;42.662;23.280;2024-03-02T13:37:55;44.60;;;24.42;;
76409;SDS011;65238;42.662;23.280;2024-03-02T13:40:21;51.60;;;26.38;;
76409;SDS011;65238;42.662;23.280;2024-03-02T13:42:48;50.42;;;25.25;;
76409;SDS011;65238;42.662;23.280;2024-03-02T13:45:15;50.85;;;25.75;;
76409;SDS011;65238;42.662;23.280;2024-03-02T13:47:41;45.58;;;23.05;;
76409;SDS011;65238;42.662;23.280;2024-03-02T13:50:07;51.00;;;24.63;;
76409;SDS011;65238;42.662;23.280;2024-03-02T13:52:32;45.83;;;24.35;;
76409;SDS011;65238;42.662;23.280;2024-03-02T13:55:01;44.67;;;24.73;;
76409;SDS011;65238;42.662;23.280;2024-03-02T13:57:27;47.47;;;24.73;;
76409;SDS011;65238;42.662;23.280;2024-03-02T13:59:53;50.10;;;25.60;;
76409;SDS011;65238;42.662;23.280;2024-03-02T14:02:19;50.60;;;24.55;;
76409;SDS011;65238;42.662;23.280;2024-03-02T14:04:45;55.90;;;28.08;;
76409;SDS011;65238;42.662;23.280;2024-03-02T14:07:10;57.35;;;28.73;;
76409;SDS011;65238;42.662;23.280;2024-03-02T14:09:37;51.50;;;25.05;;
76409;SDS011;65238;42.662;23.280;2024-03-02T14:12:02;42.70;;;23.00;;
76409;SDS011;65238;42.662;23.280;2024-03-02T14:14:29;50.92;;;27.02;;
76409;SDS011;65238;42.662;23.280;2024-03-02T14:16:54;52.72;;;27.50;;
76409;SDS011;65238;42.662;23.280;2024-03-02T14:19:31;47.30;;;26.13;;
76409;SDS011;65238;42.662;23.280;2024-03-02T14:21:56;50.83;;;25.15;;
76409;SDS011;65238;42.662;23.280;2024-03-02T14:24:22;49.03;;;25.25;;